sensor_id;sensor_type;location;lat;lon;timestamp;pressure;altitude;pressure_sealevel;temperature;humidity
18436;BME280;9346;52.006;4.720;2023-01-28T00:00:56;102912.09;;;4.19;100.00
18436;BME280;9346;52.006;4.720;2023-01-28T00:03:26;102912.09;;;4.19;100.00
18436;BME280;9346;52.006;4.720;2023-01-28T00:06:00;102905.97;;;4.17;100.00
18436;BME280;9346;52.006;4.720;2023-01-28T00:08:28;102908.69;;;4.17;100.00
18436;BME280;9346;52.006;4.720;2023-01-28T00:10:57;102913.34;;;4.17;100.00
18436;BME280;9346;52.006;4.720;2023-01-28T00:13:25;102910.28;;;4.12;100.00
18436;BME280;9346;52.006;4.720;2023-01-28T00:15:56;102916.97;;;4.09;100.00
18436;BME280;9346;52.006;4.720;2023-01-28T00:18:23;102916.78;;;4.11;100.00
18436;BME280;9346;52.006;4.720;2023-01-28T00:20:58;102917.25;;;4.14;100.00
18436;BME280;9346;52.006;4.720;2023-01-28T00:23:27;102917.56;;;4.19;100.00
18436;BME280;9346;52.006;4.720;2023-01-28T00:25:57;102906.97;;;4.24;100.00
18436;BME280;9346;52.006;4.720;2023-01-28T00:28:24;102907.63;;;4.26;100.00
18436;BME280;9346;52.006;4.720;2023-01-28T00:30:52;102901.78;;;4.29;100.00
18436;BME280;9346;52.006;4.720;2023-01-28T00:33:21;102906.03;;;4.32;100.00
18436;BME280;9346;52.006;4.720;2023-01-28T00:35:56;102903.13;;;4.33;100.00
18436;BME280;9346;52.006;4.720;2023-01-28T00:38:24;102908.56;;;4.33;100.00
18436;BME280;9346;52.006;4.720;2023-01-28T00:40:51;102909.94;;;4.37;100.00
18436;BME280;9346;52.006;4.720;2023-01-28T00:43:18;102905.47;;;4.36;100.00
18436;BME280;9346;52.006;4.720;2023-01-28T00:45:45;102905.47;;;4.36;100.00
18436;BME280;9346;52.006;4.720;2023-01-28T00:48:13;102911.97;;;4.35;100.00
18436;BME280;9346;52.006;4.720;2023-01-28T00:50:43;102914.53;;;4.37;100.00
18436;BME280;9346;52.006;4.720;2023-01-28T00:53:10;102906.16;;;4.38;100.00
18436;BME280;9346;52.006;4.720;2023-01-28T00:55:38;102902.94;;;4.35;100.00
18436;BME280;9346;52.006;4.720;2023-01-28T00:58:05;102911.03;;;4.28;100.00
18436;BME280;9346;52.006;4.720;2023-01-28T01:00:33;102903.19;;;4.25;100.00
18436;BME280;9346;52.006;4.720;2023-01-28T01:03:00;102906.28;;;4.22;100.00
18436;BME280;9346;52.006;4.720;2023-01-28T01:05:27;102905.44;;;4.22;100.00
18436;BME280;9346;52.006;4.720;2023-01-28T01:08:00;102907.03;;;4.16;100.00
18436;BME280;9346;52.006;4.720;2023-01-28T01:10:27;102909.44;;;4.11;100.00
18436;BME280;9346;52.006;4.720;2023-01-28T01:12:54;102910.47;;;4.10;100.00
18436;BME280;9346;52.006;4.720;2023-01-28T01:15:22;102917.63;;;4.11;100.00
18436;BME280;9346;52.006;4.720;2023-01-28T01:17:50;102914.53;;;4.14;100.00
18436;BME280;9346;52.006;4.720;2023-01-28T01:20:19;102904.97;;;4.18;100.00
18436;BME280;9346;52.006;4.720;2023-01-28T01:22:47;102910.06;;;4.21;100.00
18436;BME280;9346;52.006;4.720;2023-01-28T01:25:16;102911.75;;;4.22;100.00
18436;BME280;9346;52.006;4.720;2023-01-28T01:27:46;102906.66;;;4.19;100.00
18436;BME280;9346;52.006;4.720;2023-01-28T01:30:15;102910.25;;;4.20;100.00
18436;BME280;9346;52.006;4.720;2023-01-28T01:32:42;102909.03;;;4.22;100.00
18436;BME280;9346;52.006;4.720;2023-01-28T01:35:09;102898.38;;;4.27;100.00
18436;BME280;9346;52.006;4.720;2023-01-28T01:37:37;102902.66;;;4.30;100.00
18436;BME280;9346;52.006;4.720;2023-01-28T01:40:05;102897.19;;;4.30;100.00
18436;BME280;9346;52.006;4.720;2023-01-28T01:42:35;102901.78;;;4.29;100.00
18436;BME280;9346;52.006;4.720;2023-01-28T01:45:04;102900.38;;;4.33;100.00
18436;BME280;9346;52.006;4.720;2023-01-28T01:47:37;102902.75;;;4.36;100.00
18436;BME280;9346;52.006;4.720;2023-01-28T01:50:12;102905.28;;;4.38;100.00
18436;BME280;9346;52.006;4.720;2023-01-28T01:52:42;102905.47;;;4.36;100.00
18436;BME280;9346;52.006;4.720;2023-01-28T01:55:13;102899.38;;;4.34;100.00
18436;BME280;9346;52.006;4.720;2023-01-28T01:57:45;102911.31;;;4.33;100.00
18436;BME280;9346;52.006;4.720;2023-01-28T02:00:13;102894.56;;;4.36;100.00
18436;BME280;9346;52.006;4.720;2023-01-28T02:02:44;102904.47;;;4.37;100.00
18436;BME280;9346;52.006;4.720;2023-01-28T02:05:14;102906.16;;;4.38;100.00
18436;BME280;9346;52.006;4.720;2023-01-28T02:07:42;102909.94;;;4.37;100.00
18436;BME280;9346;52.006;4.720;2023-01-28T02:10:11;102908.22;;;4.36;100.00
18436;BME280;9346;52.006;4.720;2023-01-28T02:12:41;102906.03;;;4.32;100.00
18436;BME280;9346;52.006;4.720;2023-01-28T02:15:13;102896.66;;;4.34;100.00
18436;BME280;9346;52.006;4.720;2023-01-28T02:17:42;102905.28;;;4.38;100.00
18436;BME280;9346;52.006;4.720;2023-01-28T02:20:11;102895.25;;;4.38;100.00
18436;BME280;9346;52.006;4.720;2023-01-28T02:26:22;102907.84;;;4.39;100.00
18436;BME280;9346;52.006;4.720;2023-01-28T02:28:57;102919.13;;;4.36;100.00
18436;BME280;9346;52.006;4.720;2023-01-28T02:31:30;102917.25;;;4.37;100.00
18436;BME280;9346;52.006;4.720;2023-01-28T02:34:06;102927.50;;;4.35;100.00
18436;BME280;9346;52.006;4.720;2023-01-28T02:36:40;102928.56;;;4.26;100.00
18436;BME280;9346;52.006;4.720;2023-01-28T02:39:14;102933.94;;;4.19;100.00
18436;BME280;9346;52.006;4.720;2023-01-28T02:41:46;102944.34;;;4.16;100.00
18436;BME280;9346;52.006;4.720;2023-01-28T02:44:16;102927.16;;;4.15;100.00
18436;BME280;9346;52.006;4.720;2023-01-28T02:46:43;102922.53;;;4.16;100.00
18436;BME280;9346;52.006;4.720;2023-01-28T02:49:38;102913.88;;;4.12;100.00
18436;BME280;9346;52.006;4.720;2023-01-28T02:52:24;102916.44;;;4.14;100.00
18436;BME280;9346;52.006;4.720;2023-01-28T02:55:14;102917.06;;;4.16;100.00
18436;BME280;9346;52.006;4.720;2023-01-28T02:57:54;102914.84;;;4.19;100.00
18436;BME280;9346;52.006;4.720;2023-01-28T03:00:29;102914.84;;;4.19;100.00
18436;BME280;9346;52.006;4.720;2023-01-28T03:03:05;102921.16;;;4.20;100.00
18436;BME280;9346;52.006;4.720;2023-01-28T03:05:36;102923.03;;;4.19;100.00
18436;BME280;9346;52.006;4.720;2023-01-28T03:08:06;102917.25;;;4.14;100.00
18436;BME280;9346;52.006;4.720;2023-01-28T03:10:47;102916.97;;;4.09;100.00
18436;BME280;9346;52.006;4.720;2023-01-28T03:13:31;102925.78;;;4.11;100.00
18436;BME280;9346;52.006;4.720;2023-01-28T03:16:18;102925.63;;;4.13;100.00
18436;BME280;9346;52.006;4.720;2023-01-28T03:19:02;102921.56;;;4.09;100.00
18436;BME280;9346;52.006;4.720;2023-01-28T03:21:47;102921.56;;;4.09;100.00
18436;BME280;9346;52.006;4.720;2023-01-28T03:24:34;102919.88;;;4.08;100.00
18436;BME280;9346;52.006;4.720;2023-01-28T03:27:24;102913.91;;;4.04;100.00
18436;BME280;9346;52.006;4.720;2023-01-28T03:30:13;102920.59;;;4.02;100.00
18436;BME280;9346;52.006;4.720;2023-01-28T03:33:00;102925.19;;;4.01;100.00
18436;BME280;9346;52.006;4.720;2023-01-28T03:35:46;102924.38;;;4.01;100.00
18436;BME280;9346;52.006;4.720;2023-01-28T03:38:32;102920.78;;;4.00;100.00
18436;BME280;9346;52.006;4.720;2023-01-28T03:41:08;102923.88;;;3.97;100.00
18436;BME280;9346;52.006;4.720;2023-01-28T03:43:36;102922.19;;;3.96;100.00
18436;BME280;9346;52.006;4.720;2023-01-28T03:46:04;102916.72;;;3.96;100.00
18436;BME280;9346;52.006;4.720;2023-01-28T03:48:33;102916.38;;;3.99;100.00
18436;BME280;9346;52.006;4.720;2023-01-28T03:51:00;102915.28;;;4.08;100.00
18436;BME280;9346;52.006;4.720;2023-01-28T03:53:28;102906.06;;;4.09;100.00
18436;BME280;9346;52.006;4.720;2023-01-28T03:55:55;102908.41;;;4.12;100.00
18436;BME280;9346;52.006;4.720;2023-01-28T03:58:24;102916.59;;;4.12;100.00
18436;BME280;9346;52.006;4.720;2023-01-28T04:01:04;102916.09;;;4.09;100.00
18436;BME280;9346;52.006;4.720;2023-01-28T04:03:33;102926.19;;;4.08;100.00
18436;BME280;9346;52.006;4.720;2023-01-28T04:06:03;102937.94;;;4.09;100.00
18436;BME280;9346;52.006;4.720;2023-01-28T04:08:31;102940.66;;;4.09;100.00
18436;BME280;9346;52.006;4.720;2023-01-28T04:10:58;102937.09;;;4.08;100.00
18436;BME280;9346;52.006;4.720;2023-01-28T04:13:39;102943.91;;;4.04;100.00
18436;BME280;9346;52.006;4.720;2023-01-28T04:16:07;102941.19;;;4.04;100.00
18436;BME280;9346;52.006;4.720;2023-01-28T04:18:36;102938.66;;;4.03;100.00
18436;BME280;9346;52.006;4.720;2023-01-28T04:21:04;102952.09;;;4.04;100.00
18436;BME280;9346;52.006;4.720;2023-01-28T04:23:32;102955.50;;;4.06;100.00
18436;BME280;9346;52.006;4.720;2023-01-28T04:25:59;102956.00;;;4.10;100.00
18436;BME280;9346;52.006;4.720;2023-01-28T04:28:26;102950.72;;;4.08;100.00
18436;BME280;9346;52.006;4.720;2023-01-28T04:30:53;102958.91;;;4.08;100.00
18436;BME280;9346;52.006;4.720;2023-01-28T04:33:21;102962.84;;;4.06;100.00
18436;BME280;9346;52.006;4.720;2023-01-28T04:35:50;102959.63;;;4.02;100.00
18436;BME280;9346;52.006;4.720;2023-01-28T04:38:17;102962.34;;;4.02;100.00
18436;BME280;9346;52.006;4.720;2023-01-28T04:40:48;102951.63;;;4.01;100.00
18436;BME280;9346;52.006;4.720;2023-01-28T04:43:16;102947.88;;;4.02;100.00
18436;BME280;9346;52.006;4.720;2023-01-28T04:45:45;102946.66;;;4.04;100.00
18436;BME280;9346;52.006;4.720;2023-01-28T04:48:14;102945.31;;;4.00;100.00
18436;BME280;9346;52.006;4.720;2023-01-28T04:50:42;102934.78;;;3.97;100.00
18436;BME280;9346;52.006;4.720;2023-01-28T04:53:12;102926.47;;;3.91;100.00
18436;BME280;9346;52.006;4.720;2023-01-28T04:55:39;102931.25;;;3.89;100.00
18436;BME280;9346;52.006;4.720;2023-01-28T04:58:07;102927.47;;;3.90;100.00
18436;BME280;9346;52.006;4.720;2023-01-28T05:00:34;102936.72;;;3.89;100.00
18436;BME280;9346;52.006;4.720;2023-01-28T05:03:01;102934.66;;;3.91;100.00
18436;BME280;9346;52.006;4.720;2023-01-28T05:05:28;102927.38;;;3.83;100.00
18436;BME280;9346;52.006;4.720;2023-01-28T05:07:57;102937.13;;;3.78;100.00
18436;BME280;9346;52.006;4.720;2023-01-28T05:10:26;102936.78;;;3.81;100.00
18436;BME280;9346;52.006;4.720;2023-01-28T05:12:54;102946.47;;;3.83;100.00
18436;BME280;9346;52.006;4.720;2023-01-28T05:15:22;102954.63;;;3.83;100.00
18436;BME280;9346;52.006;4.720;2023-01-28T05:17:49;102944.09;;;3.80;100.00
18436;BME280;9346;52.006;4.720;2023-01-28T05:20:16;102941.91;;;3.76;100.00
18436;BME280;9346;52.006;4.720;2023-01-28T05:22:44;102952.44;;;3.79;100.00
18436;BME280;9346;52.006;4.720;2023-01-28T05:25:11;102944.75;;;3.82;100.00
18436;BME280;9346;52.006;4.720;2023-01-28T05:27:41;102943.91;;;3.82;100.00
18436;BME280;9346;52.006;4.720;2023-01-28T05:30:09;102949.66;;;3.87;100.00
18436;BME280;9346;52.006;4.720;2023-01-28T05:32:37;102942.16;;;3.89;100.00
18436;BME280;9346;52.006;4.720;2023-01-28T05:35:05;102938.28;;;3.83;100.00
18436;BME280;9346;52.006;4.720;2023-01-28T05:37:32;102941.00;;;3.83;100.00
18436;BME280;9346;52.006;4.720;2023-01-28T05:39:59;102941.72;;;3.77;100.00
18436;BME280;9346;52.006;4.720;2023-01-28T05:42:26;102935.59;;;3.75;100.00
18436;BME280;9346;52.006;4.720;2023-01-28T05:44:56;102932.69;;;3.77;100.00
18436;BME280;9346;52.006;4.720;2023-01-28T05:47:23;102933.53;;;3.77;100.00
18436;BME280;9346;52.006;4.720;2023-01-28T05:49:50;102933.00;;;3.82;100.00
18436;BME280;9346;52.006;4.720;2023-01-28T05:52:17;102929.06;;;3.84;100.00
18436;BME280;9346;52.006;4.720;2023-01-28T05:54:44;102930.94;;;3.84;100.00
18436;BME280;9346;52.006;4.720;2023-01-28T05:57:12;102938.75;;;3.87;100.00
18436;BME280;9346;52.006;4.720;2023-01-28T05:59:39;102939.63;;;3.87;100.00
18436;BME280;9346;52.006;4.720;2023-01-28T06:02:08;102929.41;;;3.81;100.00
18436;BME280;9346;52.006;4.720;2023-01-28T06:04:36;102942.56;;;3.78;100.00
18436;BME280;9346;52.006;4.720;2023-01-28T06:07:03;102946.13;;;3.78;100.00
18436;BME280;9346;52.006;4.720;2023-01-28T06:09:30;102942.00;;;3.82;100.00
18436;BME280;9346;52.006;4.720;2023-01-28T06:11:58;102948.16;;;3.84;100.00
18436;BME280;9346;52.006;4.720;2023-01-28T06:14:25;102943.19;;;3.88;100.00
18436;BME280;9346;52.006;4.720;2023-01-28T06:16:52;102941.97;;;3.90;100.00
18436;BME280;9346;52.006;4.720;2023-01-28T06:19:21;102939.75;;;3.94;100.00
18436;BME280;9346;52.006;4.720;2023-01-28T06:21:48;102939.19;;;3.98;100.00
18436;BME280;9346;52.006;4.720;2023-01-28T06:24:16;102948.03;;;4.00;100.00
18436;BME280;9346;52.006;4.720;2023-01-28T06:26:43;102952.81;;;3.98;100.00
18436;BME280;9346;52.006;4.720;2023-01-28T06:29:11;102953.00;;;3.97;100.00
18436;BME280;9346;52.006;4.720;2023-01-28T06:31:38;102954.28;;;3.86;100.00
18436;BME280;9346;52.006;4.720;2023-01-28T06:34:05;102965.03;;;3.80;100.00
18436;BME280;9346;52.006;4.720;2023-01-28T06:36:35;102965.91;;;3.80;100.00
18436;BME280;9346;52.006;4.720;2023-01-28T06:39:03;102964.41;;;3.70;100.00
18436;BME280;9346;52.006;4.720;2023-01-28T06:41:30;102959.50;;;3.65;100.00
18436;BME280;9346;52.006;4.720;2023-01-28T06:43:58;102960.72;;;3.63;100.00
18436;BME280;9346;52.006;4.720;2023-01-28T06:46:26;102959.84;;;3.62;100.00
18436;BME280;9346;52.006;4.720;2023-01-28T06:48:56;102955.75;;;3.66;100.00
18436;BME280;9346;52.006;4.720;2023-01-28T06:51:23;102966.09;;;3.71;100.00
18436;BME280;9346;52.006;4.720;2023-01-28T06:53:52;102977.16;;;3.77;100.00
18436;BME280;9346;52.006;4.720;2023-01-28T06:56:19;102976.81;;;3.80;100.00
18436;BME280;9346;52.006;4.720;2023-01-28T06:58:46;102975.47;;;3.76;100.00
18436;BME280;9346;52.006;4.720;2023-01-28T07:01:14;102961.16;;;3.74;100.00
18436;BME280;9346;52.006;4.720;2023-01-28T07:03:41;102957.94;;;3.71;100.00
18436;BME280;9346;52.006;4.720;2023-01-28T07:06:08;102972.94;;;3.67;100.00
18436;BME280;9346;52.006;4.720;2023-01-28T07:08:35;102978.56;;;3.65;100.00
18436;BME280;9346;52.006;4.720;2023-01-28T07:11:06;102971.25;;;3.66;100.00
18436;BME280;9346;52.006;4.720;2023-01-28T07:13:34;102970.41;;;3.65;100.00
18436;BME280;9346;52.006;4.720;2023-01-28T07:16:01;102975.66;;;3.67;100.00
18436;BME280;9346;52.006;4.720;2023-01-28T07:18:28;102976.53;;;3.67;100.00
18436;BME280;9346;52.006;4.720;2023-01-28T07:20:56;102973.47;;;3.62;100.00
18436;BME280;9346;52.006;4.720;2023-01-28T07:23:23;102982.34;;;3.64;100.00
18436;BME280;9346;52.006;4.720;2023-01-28T07:25:50;102987.78;;;3.64;100.00
18436;BME280;9346;52.006;4.720;2023-01-28T07:28:19;102986.94;;;3.64;100.00
18436;BME280;9346;52.006;4.720;2023-01-28T07:30:48;102993.91;;;3.66;100.00
18436;BME280;9346;52.006;4.720;2023-01-28T07:33:15;102983.84;;;3.67;100.00
18436;BME280;9346;52.006;4.720;2023-01-28T07:35:42;102979.44;;;3.66;100.00
18436;BME280;9346;52.006;4.720;2023-01-28T07:38:10;102979.78;;;3.63;100.00
18436;BME280;9346;52.006;4.720;2023-01-28T07:40:37;102994.94;;;3.65;100.00
18436;BME280;9346;52.006;4.720;2023-01-28T07:43:04;102995.25;;;3.70;100.00
18436;BME280;9346;52.006;4.720;2023-01-28T07:45:34;102980.91;;;3.76;100.00
18436;BME280;9346;52.006;4.720;2023-01-28T07:48:03;102979.19;;;3.75;100.00
18436;BME280;9346;52.006;4.720;2023-01-28T07:50:33;102966.28;;;3.69;100.00
18436;BME280;9346;52.006;4.720;2023-01-28T07:53:01;102983.19;;;3.65;100.00
18436;BME280;9346;52.006;4.720;2023-01-28T07:55:29;102997.31;;;3.68;100.00
18436;BME280;9346;52.006;4.720;2023-01-28T07:57:58;102991.31;;;3.73;100.00
18436;BME280;9346;52.006;4.720;2023-01-28T08:00:30;102988.94;;;3.70;100.00
18436;BME280;9346;52.006;4.720;2023-01-28T08:03:02;102996.94;;;3.71;100.00
18436;BME280;9346;52.006;4.720;2023-01-28T08:05:36;102991.31;;;3.73;100.00
18436;BME280;9346;52.006;4.720;2023-01-28T08:08:06;102990.81;;;3.69;100.00
18436;BME280;9346;52.006;4.720;2023-01-28T08:10:33;102995.09;;;3.72;100.00
18436;BME280;9346;52.006;4.720;2023-01-28T08:13:01;102999.31;;;3.74;100.00
18436;BME280;9346;52.006;4.720;2023-01-28T08:15:28;103006.97;;;3.79;100.00
18436;BME280;9346;52.006;4.720;2023-01-28T08:17:57;102997.75;;;3.80;100.00
18436;BME280;9346;52.006;4.720;2023-01-28T08:20:27;102999.81;;;3.78;100.00
18436;BME280;9346;52.006;4.720;2023-01-28T08:23:04;103008.53;;;3.73;100.00
18436;BME280;9346;52.006;4.720;2023-01-28T08:25:32;103012.13;;;3.66;100.00
18436;BME280;9346;52.006;4.720;2023-01-28T08:27:59;103013.53;;;3.62;100.00
18436;BME280;9346;52.006;4.720;2023-01-28T08:30:26;103015.75;;;3.58;100.00
18436;BME280;9346;52.006;4.720;2023-01-28T08:32:54;103016.59;;;3.59;100.00
18436;BME280;9346;52.006;4.720;2023-01-28T08:35:22;103025.97;;;3.56;100.00
18436;BME280;9346;52.006;4.720;2023-01-28T08:37:53;103026.66;;;3.58;100.00
18436;BME280;9346;52.006;4.720;2023-01-28T08:40:20;103036.50;;;3.59;100.00
18436;BME280;9346;52.006;4.720;2023-01-28T08:42:48;103034.47;;;3.61;100.00
18436;BME280;9346;52.006;4.720;2023-01-28T08:45:17;103049.63;;;3.64;100.00
18436;BME280;9346;52.006;4.720;2023-01-28T08:47:47;103054.06;;;3.65;100.00
18436;BME280;9346;52.006;4.720;2023-01-28T08:50:15;103044.34;;;3.62;100.00
18436;BME280;9346;52.006;4.720;2023-01-28T08:52:43;103031.59;;;3.55;100.00
18436;BME280;9346;52.006;4.720;2023-01-28T08:55:12;103045.06;;;3.48;100.00
18436;BME280;9346;52.006;4.720;2023-01-28T08:57:40;103054.13;;;3.41;100.00
18436;BME280;9346;52.006;4.720;2023-01-28T09:00:11;103045.25;;;3.39;100.00
18436;BME280;9346;52.006;4.720;2023-01-28T09:02:38;103046.13;;;3.39;100.00
18436;BME280;9346;52.006;4.720;2023-01-28T09:05:06;103037.09;;;3.39;100.00
18436;BME280;9346;52.006;4.720;2023-01-28T09:07:34;103043.38;;;3.39;100.00
18436;BME280;9346;52.006;4.720;2023-01-28T09:10:02;103038.81;;;3.40;100.00
18436;BME280;9346;52.006;4.720;2023-01-28T09:12:32;103045.97;;;3.33;100.00
18436;BME280;9346;52.006;4.720;2023-01-28T09:14:59;103052.09;;;3.35;100.00
18436;BME280;9346;52.006;4.720;2023-01-28T09:17:27;103054.31;;;3.31;100.00
18436;BME280;9346;52.006;4.720;2023-01-28T09:19:54;103065.88;;;3.33;100.00
18436;BME280;9346;52.006;4.720;2023-01-28T09:22:23;103067.22;;;3.37;100.00
18436;BME280;9346;52.006;4.720;2023-01-28T09:24:52;103068.78;;;3.40;100.00
18436;BME280;9346;52.006;4.720;2023-01-28T09:27:20;103073.00;;;3.42;100.00
18436;BME280;9346;52.006;4.720;2023-01-28T09:29:49;103082.53;;;3.46;100.00
18436;BME280;9346;52.006;4.720;2023-01-28T09:32:17;103087.81;;;3.48;100.00
18436;BME280;9346;52.006;4.720;2023-01-28T09:34:43;103080.31;;;3.50;100.00
18436;BME280;9346;52.006;4.720;2023-01-28T09:37:11;103085.59;;;3.51;100.00
18436;BME280;9346;52.006;4.720;2023-01-28T09:39:38;103090.72;;;3.54;100.00
18436;BME280;9346;52.006;4.720;2023-01-28T09:42:26;103083.53;;;3.53;100.00
18436;BME280;9346;52.006;4.720;2023-01-28T09:45:07;103089.66;;;3.55;100.00
18436;BME280;9346;52.006;4.720;2023-01-28T09:47:42;103095.63;;;3.59;100.00
18436;BME280;9346;52.006;4.720;2023-01-28T09:50:15;103083.88;;;3.58;100.00
18436;BME280;9346;52.006;4.720;2023-01-28T09:52:44;103088.63;;;3.64;100.00
18436;BME280;9346;52.006;4.720;2023-01-28T09:55:17;103096.28;;;3.69;100.00
18436;BME280;9346;52.006;4.720;2023-01-28T09:57:50;103094.03;;;3.72;100.00
18436;BME280;9346;52.006;4.720;2023-01-28T10:00:23;103086.72;;;3.73;100.00
18436;BME280;9346;52.006;4.720;2023-01-28T10:03:01;103095.41;;;3.76;100.00
18436;BME280;9346;52.006;4.720;2023-01-28T10:05:39;103101.34;;;3.80;100.00
18436;BME280;9346;52.006;4.720;2023-01-28T10:08:21;103104.59;;;3.83;100.00
18436;BME280;9346;52.006;4.720;2023-01-28T10:10:58;103112.41;;;3.86;100.00
18436;BME280;9346;52.006;4.720;2023-01-28T10:13:35;103110.84;;;3.92;100.00
18436;BME280;9346;52.006;4.720;2023-01-28T10:16:15;103101.47;;;3.94;100.00
18436;BME280;9346;52.006;4.720;2023-01-28T10:18:49;103098.75;;;3.94;100.00
18436;BME280;9346;52.006;4.720;2023-01-28T10:21:21;103096.88;;;3.95;100.00
18436;BME280;9346;52.006;4.720;2023-01-28T10:23:58;103101.81;;;3.99;100.00
18436;BME280;9346;52.006;4.720;2023-01-28T10:26:32;103094.63;;;3.98;100.00
18436;BME280;9346;52.006;4.720;2023-01-28T10:29:03;103091.72;;;4.00;100.00
18436;BME280;9346;52.006;4.720;2023-01-28T10:31:41;103092.75;;;3.99;100.00
18436;BME280;9346;52.006;4.720;2023-01-28T10:34:10;103089.16;;;3.98;100.00
18436;BME280;9346;52.006;4.720;2023-01-28T10:36:38;103086.28;;;4.00;100.00
18436;BME280;9346;52.006;4.720;2023-01-28T10:39:05;103087.13;;;4.00;100.00
18436;BME280;9346;52.006;4.720;2023-01-28T10:41:33;103071.81;;;3.99;100.00
18436;BME280;9346;52.006;4.720;2023-01-28T10:44:00;103083.72;;;3.98;100.00
18436;BME280;9346;52.006;4.720;2023-01-28T10:46:29;103082.72;;;3.99;100.00
18436;BME280;9346;52.006;4.720;2023-01-28T10:49:05;103081.50;;;4.02;100.00
18436;BME280;9346;52.006;4.720;2023-01-28T10:51:40;103076.03;;;4.02;100.00
18436;BME280;9346;52.006;4.720;2023-01-28T10:54:18;103079.28;;;4.05;100.00
18436;BME280;9346;52.006;4.720;2023-01-28T10:56:46;103076.38;;;4.07;100.00
18436;BME280;9346;52.006;4.720;2023-01-28T10:59:19;103072.25;;;4.11;100.00
18436;BME280;9346;52.006;4.720;2023-01-28T11:01:49;103057.03;;;4.16;100.00
18436;BME280;9346;52.006;4.720;2023-01-28T11:04:23;103045.78;;;4.19;100.00
18436;BME280;9346;52.006;4.720;2023-01-28T11:06:58;103021.91;;;4.21;100.00
18436;BME280;9346;52.006;4.720;2023-01-28T11:09:28;103017.78;;;4.25;100.00
18436;BME280;9346;52.006;4.720;2023-01-28T11:11:56;103017.25;;;4.30;100.00
18436;BME280;9346;52.006;4.720;2023-01-28T11:14:25;103010.06;;;4.29;100.00
18436;BME280;9346;52.006;4.720;2023-01-28T11:16:54;102997.59;;;4.34;100.00
18436;BME280;9346;52.006;4.720;2023-01-28T11:19:28;102997.16;;;4.45;100.00
18436;BME280;9346;52.006;4.720;2023-01-28T11:21:57;102997.66;;;4.49;100.00
18436;BME280;9346;52.006;4.720;2023-01-28T11:24:26;102997.66;;;4.49;100.00
18436;BME280;9346;52.006;4.720;2023-01-28T11:26:56;102976.47;;;4.51;100.00
18436;BME280;9346;52.006;4.720;2023-01-28T11:29:27;102978.66;;;4.55;100.00
18436;BME280;9346;52.006;4.720;2023-01-28T11:31:57;102983.75;;;4.58;100.00
18436;BME280;9346;52.006;4.720;2023-01-28T11:34:34;102974.06;;;4.56;100.00
18436;BME280;9346;52.006;4.720;2023-01-28T11:37:03;102956.81;;;4.55;100.00
18436;BME280;9346;52.006;4.720;2023-01-28T11:39:37;102953.22;;;4.55;100.00
18436;BME280;9346;52.006;4.720;2023-01-28T11:42:14;102950.31;;;4.56;100.00
18436;BME280;9346;52.006;4.720;2023-01-28T11:44:42;102964.66;;;4.58;100.00
18436;BME280;9346;52.006;4.720;2023-01-28T11:47:24;102957.50;;;4.57;100.00
18436;BME280;9346;52.006;4.720;2023-01-28T11:50:09;102963.59;;;4.59;100.00
18436;BME280;9346;52.006;4.720;2023-01-28T11:52:50;102973.19;;;4.55;100.00
18436;BME280;9346;52.006;4.720;2023-01-28T11:55:37;102980.75;;;4.53;100.00
18436;BME280;9346;52.006;4.720;2023-01-28T11:58:17;102971.00;;;4.51;100.00
18436;BME280;9346;52.006;4.720;2023-01-28T12:00:51;102979.38;;;4.49;100.00
18436;BME280;9346;52.006;4.720;2023-01-28T12:03:45;102995.94;;;4.48;100.00
18436;BME280;9346;52.006;4.720;2023-01-28T12:06:30;102989.84;;;4.46;100.00
18436;BME280;9346;52.006;4.720;2023-01-28T12:09:09;102981.66;;;4.46;100.00
18436;BME280;9346;52.006;4.720;2023-01-28T12:11:49;102975.47;;;4.52;100.00
18436;BME280;9346;52.006;4.720;2023-01-28T12:15:01;102988.53;;;4.56;100.00
18436;BME280;9346;52.006;4.720;2023-01-28T12:17:37;102988.16;;;4.59;100.00
18436;BME280;9346;52.006;4.720;2023-01-28T12:20:17;102996.72;;;4.56;100.00
18436;BME280;9346;52.006;4.720;2023-01-28T12:25:56;103018.56;;;4.56;100.00
18436;BME280;9346;52.006;4.720;2023-01-28T12:28:41;103013.97;;;4.57;100.00
18436;BME280;9346;52.006;4.720;2023-01-28T12:31:29;103019.06;;;4.60;100.00
18436;BME280;9346;52.006;4.720;2023-01-28T12:34:39;103006.25;;;4.60;100.00
18436;BME280;9346;52.006;4.720;2023-01-28T12:37:15;102989.72;;;4.62;100.00
18436;BME280;9346;52.006;4.720;2023-01-28T12:40:02;102987.44;;;4.65;100.00
18436;BME280;9346;52.006;4.720;2023-01-28T12:42:35;102983.53;;;4.68;100.00
18436;BME280;9346;52.006;4.720;2023-01-28T12:45:12;102977.28;;;4.74;100.00
18436;BME280;9346;52.006;4.720;2023-01-28T12:47:48;102970.81;;;4.75;100.00
18436;BME280;9346;52.006;4.720;2023-01-28T12:50:20;102962.44;;;4.77;100.00
18436;BME280;9346;52.006;4.720;2023-01-28T12:52:51;102954.53;;;4.82;100.00
18436;BME280;9346;52.006;4.720;2023-01-28T12:55:34;102940.13;;;4.88;100.00
18436;BME280;9346;52.006;4.720;2023-01-28T12:58:04;102933.63;;;4.89;100.00
18436;BME280;9346;52.006;4.720;2023-01-28T13:00:33;102913.13;;;4.93;100.00
18436;BME280;9346;52.006;4.720;2023-01-28T13:03:09;102907.94;;;4.98;100.00
18436;BME280;9346;52.006;4.720;2023-01-28T13:05:43;102905.50;;;5.03;100.00
18436;BME280;9346;52.006;4.720;2023-01-28T13:08:16;102905.50;;;5.03;100.00
18436;BME280;9346;52.006;4.720;2023-01-28T13:10:48;102907.75;;;4.99;100.00
18436;BME280;9346;52.006;4.720;2023-01-28T13:13:29;102905.69;;;5.01;100.00
18436;BME280;9346;52.006;4.720;2023-01-28T13:15:58;102918.47;;;5.01;100.00
18436;BME280;9346;52.006;4.720;2023-01-28T13:18:32;102921.03;;;5.02;100.00
18436;BME280;9346;52.006;4.720;2023-01-28T13:21:02;102919.97;;;5.03;100.00
18436;BME280;9346;52.006;4.720;2023-01-28T13:23:38;102916.13;;;4.98;100.00
18436;BME280;9346;52.006;4.720;2023-01-28T13:26:26;102916.31;;;4.96;100.00
18436;BME280;9346;52.006;4.720;2023-01-28T13:29:07;102909.16;;;4.95;100.00